Terminal Aerodrome Forecast
Issued by NWS Boise, ID

Home | Current Version | Previous Version | Text Only | Print | Product List | Glossary On
Versions: 1 2 3 4 5 6 7 8 9 10 11 12
000
FTUS45 KBOI 161120
TAFBOI
TAF
KBOI 161120Z 1612/1712 VRB03KT P6SM SCT100 OVC200
     FM161700 31007KT P6SM SCT100 OVC200
     FM170400 13005KT P6SM OVC100=

USA.gov is the U.S. government's official web portal to all federal, state and local government web resources and services.